createdAt,value
2019-04-06T00:02:41.110Z,4.73
2019-04-06T00:05:28.112Z,4.47
2019-04-06T00:08:10.475Z,3.90
2019-04-06T00:10:49.683Z,4.17
2019-04-06T00:13:28.635Z,4.07
2019-04-06T00:16:15.121Z,4.37
2019-04-06T00:18:53.437Z,3.97
2019-04-06T00:21:32.485Z,4.20
2019-04-06T00:24:17.290Z,4.47
2019-04-06T00:26:57.399Z,4.23
2019-04-06T00:29:43.880Z,4.50
2019-04-06T00:32:43.958Z,4.13
2019-04-06T00:35:31.813Z,4.00
2019-04-06T00:38:25.966Z,4.77
2019-04-06T00:41:13.766Z,4.67
2019-04-06T00:44:02.533Z,4.27
2019-04-06T00:46:59.152Z,4.90
2019-04-06T00:50:08.019Z,5.17
2019-04-06T00:53:19.702Z,5.07
2019-04-06T00:55:56.190Z,5.47
2019-04-06T00:59:29.375Z,5.30
2019-04-06T01:01:47.173Z,5.60
2019-04-06T01:04:40.658Z,5.20
2019-04-06T01:07:33.572Z,5.30
2019-04-06T01:10:19.670Z,5.27
2019-04-06T01:13:14.408Z,5.00
2019-04-06T01:16:07.584Z,5.90
2019-04-06T01:19:01.689Z,5.77
2019-04-06T01:21:47.847Z,6.13
2019-04-06T01:24:43.653Z,6.00
2019-04-06T01:27:40.289Z,5.67
2019-04-06T01:30:45.728Z,5.40
2019-04-06T01:33:34.346Z,5.60
2019-04-06T01:36:22.042Z,5.97
2019-04-06T01:39:25.060Z,7.07
2019-04-06T01:42:09.539Z,5.63
2019-04-06T01:45:16.480Z,5.67
2019-04-06T01:48:07.192Z,5.27
2019-04-06T01:50:53.551Z,6.00
2019-04-06T01:53:45.530Z,5.70
2019-04-06T01:56:32.542Z,5.20
2019-04-06T01:59:17.128Z,6.27
2019-04-06T02:02:23.427Z,5.53
2019-04-06T02:05:07.660Z,5.33
2019-04-06T02:08:19.942Z,6.00
2019-04-06T02:11:16.378Z,5.50
2019-04-06T02:14:12.393Z,5.17
2019-04-06T02:17:17.053Z,4.83
2019-04-06T02:20:28.929Z,5.73
2019-04-06T02:23:25.406Z,5.17
2019-04-06T02:26:30.706Z,4.70
2019-04-06T02:29:39.349Z,5.63
2019-04-06T02:32:58.768Z,5.23
2019-04-06T02:36:12.572Z,5.20
2019-04-06T02:39:16.794Z,4.63
2019-04-06T02:42:24.930Z,5.17
2019-04-06T02:45:08.494Z,5.57
2019-04-06T02:48:00.003Z,5.43
2019-04-06T02:50:42.308Z,5.83
2019-04-06T02:53:23.152Z,5.27
2019-04-06T02:56:05.694Z,5.87
2019-04-06T02:58:57.212Z,5.13
2019-04-06T03:01:40.750Z,5.20
2019-04-06T03:04:46.324Z,5.23
2019-04-06T03:07:33.211Z,5.77
2019-04-06T03:10:25.186Z,5.70
2019-04-06T03:13:16.085Z,5.27
2019-04-06T03:16:19.335Z,5.70
2019-04-06T03:19:21.105Z,4.90
2019-04-06T03:22:15.428Z,5.00
2019-04-06T03:25:00.741Z,5.53
2019-04-06T03:27:57.837Z,5.20
2019-04-06T03:30:37.659Z,5.43
2019-04-06T03:33:36.444Z,4.90
2019-04-06T03:36:27.579Z,4.37
2019-04-06T03:39:15.797Z,5.17
2019-04-06T03:42:06.553Z,4.70
2019-04-06T03:44:56.353Z,5.13
2019-04-06T03:47:56.151Z,4.87
2019-04-06T03:50:45.707Z,5.00
2019-04-06T03:53:29.847Z,5.30
2019-04-06T03:56:17.120Z,5.17
2019-04-06T03:59:09.693Z,5.37
2019-04-06T04:01:53.299Z,5.50
2019-04-06T04:04:36.519Z,5.10
2019-04-06T04:07:27.702Z,5.40
2019-04-06T04:10:17.495Z,5.10
2019-04-06T04:12:58.041Z,6.00
2019-04-06T04:15:51.286Z,5.00
2019-04-06T04:18:33.702Z,5.23
2019-04-06T04:21:16.167Z,4.70
2019-04-06T04:23:59.978Z,5.13
2019-04-06T04:26:48.007Z,5.33
2019-04-06T04:29:51.198Z,5.10
2019-04-06T04:32:33.017Z,5.60
2019-04-06T04:35:40.297Z,4.80
2019-04-06T04:38:38.223Z,5.27
2019-04-06T04:41:31.906Z,4.90
2019-04-06T04:44:20.321Z,5.50
2019-04-06T04:47:07.626Z,4.83
2019-04-06T04:53:07.084Z,5.53
2019-04-06T04:56:14.014Z,5.73
2019-04-06T04:58:56.692Z,6.03
2019-04-06T05:01:48.177Z,6.00
2019-04-06T05:05:06.570Z,7.50
2019-04-06T05:08:38.233Z,5.93
2019-04-06T05:11:33.247Z,4.90
2019-04-06T05:15:02.396Z,5.23
2019-04-06T05:17:45.945Z,5.03
2019-04-06T05:20:55.170Z,5.57
2019-04-06T05:24:00.221Z,5.13
2019-04-06T05:26:57.414Z,5.60
2019-04-06T05:29:43.829Z,5.33
2019-04-06T05:32:45.051Z,5.27
2019-04-06T05:35:26.841Z,5.53
2019-04-06T05:38:12.110Z,5.73
2019-04-06T05:41:30.243Z,5.53
2019-04-06T05:44:33.687Z,5.70
2019-04-06T05:47:27.641Z,5.27
2019-04-06T05:55:29.528Z,5.57
2019-04-06T05:59:20.612Z,5.40
2019-04-06T06:39:47.146Z,6.00
2019-04-06T07:32:10.520Z,24.63
2019-04-06T08:43:44.706Z,21.80
2019-04-06T08:46:43.227Z,22.20
2019-04-06T08:49:46.169Z,21.10
2019-04-06T08:52:22.898Z,21.80
2019-04-06T08:55:07.484Z,23.90
2019-04-06T08:57:51.519Z,23.07
2019-04-06T09:00:41.385Z,22.03
2019-04-06T09:03:31.930Z,23.67
2019-04-06T09:06:55.486Z,21.20
2019-04-06T09:10:06.488Z,21.07
2019-04-06T09:12:54.458Z,23.00
2019-04-06T09:15:34.456Z,21.10
2019-04-06T09:22:13.093Z,19.87
2019-04-06T09:24:52.904Z,19.30
2019-04-06T09:27:30.186Z,19.97
2019-04-06T09:30:10.474Z,18.80
2019-04-06T09:32:45.833Z,19.27
2019-04-06T09:35:28.099Z,19.40
2019-04-06T09:38:05.225Z,23.40
2019-04-06T09:40:42.957Z,21.90
2019-04-06T09:43:18.403Z,20.17
2019-04-06T09:46:15.667Z,20.17
2019-04-06T09:49:18.386Z,19.57
2019-04-06T09:52:12.921Z,18.93
2019-04-06T09:55:30.566Z,18.97
2019-04-06T09:58:18.201Z,19.13
2019-04-06T10:01:06.907Z,18.53
2019-04-06T10:03:55.444Z,17.97
2019-04-06T10:06:51.313Z,17.90
2019-04-06T10:09:44.434Z,17.47
2019-04-06T10:12:43.756Z,19.07
2019-04-06T10:16:02.130Z,18.17
2019-04-06T10:19:08.261Z,16.23
2019-04-06T10:22:13.326Z,16.83
2019-04-06T10:25:12.477Z,15.77
2019-04-06T10:28:15.192Z,13.97
2019-04-06T10:31:20.555Z,14.63
2019-04-06T10:34:12.843Z,14.43
2019-04-06T10:37:11.178Z,13.90
2019-04-06T10:40:01.934Z,13.63
2019-04-06T10:43:02.230Z,14.97
2019-04-06T10:46:04.710Z,14.07
2019-04-06T10:48:55.993Z,13.60
2019-04-06T10:51:41.370Z,13.60
2019-04-06T10:54:28.170Z,13.50
2019-04-06T10:57:22.489Z,12.53
2019-04-06T11:00:16.038Z,12.37
2019-04-06T11:02:56.712Z,12.00
2019-04-06T11:05:54.577Z,11.13
2019-04-06T11:09:32.217Z,10.83
2019-04-06T11:12:33.971Z,10.50
2019-04-06T11:15:31.608Z,11.07
2019-04-06T11:18:33.357Z,9.60
2019-04-06T11:21:34.336Z,8.97
2019-04-06T11:25:10.324Z,8.23
2019-04-06T11:28:41.619Z,7.60
2019-04-06T11:31:38.051Z,7.43
2019-04-06T12:07:27.239Z,3.67
2019-04-06T12:14:41.289Z,3.90
2019-04-06T12:17:26.830Z,3.07
2019-04-06T12:20:19.636Z,2.47
2019-04-06T12:23:40.062Z,2.60
2019-04-06T12:26:44.540Z,3.13
2019-04-06T12:34:56.476Z,3.17
2019-04-06T12:45:42.757Z,2.20
2019-04-06T14:04:41.229Z,1.12
2019-04-06T14:08:47.044Z,1.20
2019-04-06T14:12:40.459Z,1.67
2019-04-06T14:20:58.151Z,1.87
2019-04-06T14:29:31.749Z,1.30
2019-04-06T15:16:58.483Z,1.10
2019-04-06T15:43:06.877Z,1.15
2019-04-06T15:46:26.791Z,0.80
2019-04-06T15:49:45.063Z,0.80
2019-04-06T15:53:11.808Z,1.70
2019-04-06T15:59:40.138Z,0.72
2019-04-06T16:03:14.325Z,2.05
2019-04-06T16:06:22.354Z,0.90
2019-04-06T16:09:20.061Z,0.90
2019-04-06T16:12:23.819Z,1.12
2019-04-06T16:15:25.187Z,0.90
2019-04-06T16:18:12.321Z,1.17
2019-04-06T16:20:55.702Z,1.83
2019-04-06T16:24:09.959Z,0.70
2019-04-06T16:27:15.931Z,1.00
2019-04-06T16:30:08.219Z,1.40
2019-04-06T16:33:00.175Z,0.90
2019-04-06T16:35:58.932Z,1.43
2019-04-06T16:38:51.874Z,1.23
2019-04-06T16:41:37.963Z,1.00
2019-04-06T16:44:47.712Z,1.10
2019-04-06T16:47:42.575Z,1.10
2019-04-06T16:50:27.229Z,1.40
2019-04-06T16:53:27.075Z,1.13
2019-04-06T16:59:58.847Z,1.77
2019-04-06T17:06:38.701Z,0.90
2019-04-06T17:13:14.901Z,1.30
2019-04-06T17:16:12.386Z,1.77
2019-04-06T17:19:26.308Z,2.30
2019-04-06T17:22:39.281Z,1.30
2019-04-06T17:26:05.154Z,1.60
2019-04-06T17:28:54.633Z,1.50
2019-04-06T17:32:02.297Z,1.30
2019-04-06T17:34:58.859Z,1.50
2019-04-06T17:38:18.303Z,1.40
2019-04-06T17:41:31.018Z,1.30
2019-04-06T17:44:35.970Z,1.20
2019-04-06T17:47:34.873Z,1.47
2019-04-06T17:50:46.623Z,2.20
2019-04-06T17:53:47.280Z,1.20
2019-04-06T17:56:43.343Z,1.40
2019-04-06T17:59:38.519Z,1.80
2019-04-06T18:02:48.379Z,1.30
2019-04-06T18:06:13.369Z,2.40
2019-04-06T18:09:18.082Z,1.30
2019-04-06T18:16:36.496Z,1.43
2019-04-06T18:20:16.208Z,1.30
2019-04-06T18:24:19.485Z,9.27
2019-04-06T18:35:33.832Z,2.80
2019-04-06T18:42:21.817Z,2.17
2019-04-06T18:45:10.161Z,1.23
2019-04-06T18:48:19.542Z,1.80
2019-04-06T18:51:05.470Z,1.10
2019-04-06T18:53:49.575Z,1.43
2019-04-06T18:56:55.744Z,1.83
2019-04-06T18:59:36.341Z,1.20
2019-04-06T19:05:45.268Z,1.33
2019-04-06T19:09:20.671Z,1.77
2019-04-06T19:12:29.664Z,1.73
2019-04-06T19:15:55.784Z,1.30
2019-04-06T19:18:44.580Z,2.37
2019-04-06T19:22:00.187Z,1.37
2019-04-06T19:27:44.328Z,2.03
2019-04-06T20:01:21.913Z,1.40
2019-04-06T20:03:59.608Z,3.40
2019-04-06T20:06:37.404Z,1.77
2019-04-06T20:09:18.849Z,2.10
2019-04-06T20:12:04.277Z,1.83
2019-04-06T20:14:38.034Z,1.83
2019-04-06T20:31:48.322Z,2.23
2019-04-06T20:43:50.672Z,1.97
2019-04-06T22:28:12.187Z,1.97
2019-04-06T22:33:48.021Z,1.27
2019-04-06T22:36:36.842Z,1.37
2019-04-06T22:39:20.688Z,1.83
2019-04-06T22:42:00.546Z,1.57
2019-04-06T22:44:40.514Z,1.10
2019-04-06T22:47:20.933Z,1.73
2019-04-06T22:49:59.531Z,1.30
2019-04-06T22:52:38.377Z,1.50
2019-04-06T22:55:17.737Z,1.77
2019-04-06T22:57:54.339Z,1.90
2019-04-06T23:00:48.755Z,1.43
2019-04-06T23:03:45.001Z,1.60
2019-04-06T23:06:29.966Z,1.40
2019-04-06T23:09:11.018Z,1.23
2019-04-06T23:11:49.141Z,1.73
2019-04-06T23:14:28.418Z,1.50
2019-04-06T23:17:12.429Z,3.80
2019-04-06T23:19:54.621Z,1.57
2019-04-06T23:22:33.039Z,1.40
2019-04-06T23:25:10.843Z,1.67
2019-04-06T23:27:48.758Z,1.30
2019-04-06T23:30:28.259Z,1.73
2019-04-06T23:33:08.248Z,1.47
2019-04-06T23:35:47.216Z,1.40
2019-04-06T23:38:30.421Z,1.50
2019-04-06T23:41:08.480Z,1.67
2019-04-06T23:43:47.297Z,1.33
2019-04-06T23:46:39.502Z,1.50
2019-04-06T23:49:16.726Z,1.23
2019-04-06T23:51:55.470Z,1.40
2019-04-06T23:54:38.379Z,1.50
2019-04-06T23:57:16.130Z,1.50
